Terminal Aerodrome Forecast
Issued by NWS Nashville, TN

Current Version | Previous Version | Text Only | Print | Product List | Glossary On
Versions: 1 2 3 4 5 6 7 8 9 10 11 12 13 14 15 16 17 18 19 20 21 22 23 24
000
FTUS44 KOHX 122300
TAFCSV
TAF
KCSV 122320Z 1300/1324 33004KT P6SM BKN200
     FM130600 21002KT 5SM BR SCT200
      TEMPO 1309/1311 3SM BR
     FM131400 23006KT P6SM BKN100
     FM131700 23009KT P6SM VCTS SCT040CB BKN100=

USA.gov is the U.S. government's official web portal to all federal, state and local government web resources and services.